Edmonds, Washington
Current Conditions -  °F | °C
As of 2:53 AM on Wednesday 26 Nov 2014 (Local Time) from KPAE Reporting Station
Overcast Overcast  
Wind Chill: 13°   Ceiling: 900
Heat Index: 13°   Visibility: 10mi
Dew Point: 11°   Wind: 22mph
Humidity: 89%   Direction: 200°SSW
Pressure: 30.14"   Gusts: 30mph
Location:  47.81°N, 122.37°W
Report Text: KPAE 261053Z AUTO 20019G26KT 10SM OVC009 13/11 A3014 RMK AO2 PK WND 20030/1006 SLP208 T01280111
Loading
Personal Weather Stations






























Interactive Weather Map New forecast layout! Learn more

10-Day Weather Forecast

Advertisements
Track Severe Weather on mobile